createdAt,value
2022-09-23T00:01:20.111Z,48.45
2022-09-23T00:03:49.371Z,48.79
2022-09-23T00:06:19.168Z,48.87
2022-09-23T00:08:47.556Z,48.99
2022-09-23T00:11:20.197Z,49.05
2022-09-23T00:13:49.389Z,48.96
2022-09-23T00:16:20.045Z,49.07
2022-09-23T00:18:49.962Z,48.76
2022-09-23T00:21:19.565Z,49.13
2022-09-23T00:23:47.497Z,49.40
2022-09-23T00:26:16.913Z,49.92
2022-09-23T00:28:44.789Z,49.68
2022-09-23T00:31:15.709Z,49.29
2022-09-23T00:33:43.535Z,49.64
2022-09-23T00:36:17.522Z,50.46
2022-09-23T00:38:45.860Z,50.29
2022-09-23T00:41:16.272Z,49.80
2022-09-23T00:43:47.724Z,49.87
2022-09-23T00:46:18.987Z,50.08
2022-09-23T00:48:48.952Z,49.91
2022-09-23T00:51:20.778Z,50.10
2022-09-23T00:53:49.007Z,50.29
2022-09-23T00:56:16.956Z,50.04
2022-09-23T00:58:45.861Z,49.92
2022-09-23T01:01:16.748Z,50.00
2022-09-23T01:03:45.276Z,50.12
2022-09-23T01:06:14.347Z,50.00
2022-09-23T01:08:44.435Z,50.10
2022-09-23T01:11:28.082Z,49.57
2022-09-23T01:14:20.752Z,49.79
2022-09-23T01:17:16.866Z,50.07
2022-09-23T01:20:06.468Z,50.31
2022-09-23T01:23:05.929Z,49.71
2022-09-23T01:25:37.538Z,49.60
2022-09-23T01:28:42.475Z,49.71
2022-09-23T01:31:09.885Z,49.75
2022-09-23T01:33:56.940Z,49.86
2022-09-23T01:36:34.793Z,49.63
2022-09-23T01:39:11.691Z,49.55
2022-09-23T01:41:51.655Z,49.53
2022-09-23T01:44:24.209Z,49.81
2022-09-23T01:46:55.195Z,49.80
2022-09-23T01:49:34.757Z,49.71
2022-09-23T01:52:30.428Z,50.21
2022-09-23T01:55:06.563Z,50.00
2022-09-23T01:57:38.377Z,49.36
2022-09-23T02:00:15.418Z,49.10
2022-09-23T02:02:49.715Z,49.45
2022-09-23T02:05:50.866Z,49.79
2022-09-23T02:08:22.355Z,50.22
2022-09-23T02:10:54.022Z,50.68
2022-09-23T02:13:54.629Z,49.65
2022-09-23T02:16:34.318Z,49.71
2022-09-23T02:19:04.677Z,50.00
2022-09-23T02:21:38.964Z,50.26
2022-09-23T02:24:14.629Z,50.91
2022-09-23T02:26:47.819Z,50.47
2022-09-23T02:29:27.932Z,50.38
2022-09-23T02:32:15.261Z,51.18
2022-09-23T02:34:47.165Z,50.25
2022-09-23T02:37:43.645Z,50.53
2022-09-23T02:40:38.764Z,50.91
2022-09-23T02:43:06.220Z,51.22
2022-09-23T02:45:34.152Z,50.94
2022-09-23T02:48:14.787Z,50.46
2022-09-23T02:50:42.810Z,50.61
2022-09-23T02:53:10.631Z,50.17
2022-09-23T02:55:38.073Z,49.93
2022-09-23T02:58:06.233Z,49.85
2022-09-23T03:01:05.094Z,50.01
2022-09-23T03:03:49.960Z,50.32
2022-09-23T03:06:33.512Z,51.18
2022-09-23T03:09:04.815Z,50.71
2022-09-23T03:11:35.656Z,51.17
2022-09-23T03:14:17.666Z,51.38
2022-09-23T03:16:55.894Z,51.08
2022-09-23T03:19:48.598Z,50.66
2022-09-23T03:22:27.208Z,50.27
2022-09-23T03:24:56.134Z,50.10
2022-09-23T03:27:26.771Z,50.18
2022-09-23T03:29:55.388Z,49.73
2022-09-23T03:32:27.513Z,49.85
2022-09-23T03:34:57.138Z,49.47
2022-09-23T03:37:39.065Z,49.46
2022-09-23T03:40:21.062Z,49.50
2022-09-23T03:42:51.609Z,51.96
2022-09-23T03:45:22.569Z,51.41
2022-09-23T03:47:50.330Z,50.92
2022-09-23T03:50:17.997Z,49.98
2022-09-23T03:52:46.424Z,50.03
2022-09-23T03:55:14.652Z,50.77
2022-09-23T03:57:42.073Z,51.47
2022-09-23T04:00:10.293Z,52.28
2022-09-23T04:02:39.281Z,52.34
2022-09-23T04:05:08.138Z,51.96
2022-09-23T04:07:35.597Z,52.15
2022-09-23T04:10:04.899Z,51.62
2022-09-23T04:12:32.730Z,51.45
2022-09-23T04:15:00.176Z,51.26
2022-09-23T04:17:27.672Z,51.48
2022-09-23T04:19:55.712Z,51.30
2022-09-23T04:22:23.129Z,51.22
2022-09-23T04:24:50.880Z,51.60
2022-09-23T04:27:18.570Z,51.41
2022-09-23T04:29:46.097Z,51.97
2022-09-23T04:32:13.628Z,52.00
2022-09-23T04:34:41.360Z,51.40
2022-09-23T04:37:08.849Z,52.63
2022-09-23T04:39:36.364Z,52.13
2022-09-23T04:42:04.319Z,51.18
2022-09-23T04:44:31.759Z,51.45
2022-09-23T04:46:59.246Z,51.48
2022-09-23T04:49:27.021Z,51.07
2022-09-23T04:51:54.487Z,51.71
2022-09-23T04:54:21.903Z,50.70
2022-09-23T04:56:49.573Z,51.02
2022-09-23T04:59:17.003Z,49.89
2022-09-23T05:01:44.527Z,49.73
2022-09-23T05:04:14.162Z,49.31
2022-09-23T05:06:45.119Z,49.09
2022-09-23T05:09:16.461Z,49.23
2022-09-23T05:11:44.232Z,50.99
2022-09-23T05:14:11.846Z,51.19
2022-09-23T05:16:39.596Z,49.97
2022-09-23T05:19:07.167Z,49.48
2022-09-23T05:21:35.220Z,49.51
2022-09-23T05:24:02.961Z,49.84
2022-09-23T05:26:32.154Z,49.97
2022-09-23T05:29:00.279Z,50.25
2022-09-23T05:31:29.434Z,50.57
2022-09-23T05:33:59.403Z,50.39
2022-09-23T05:36:28.413Z,50.62
2022-09-23T05:38:58.991Z,50.95
2022-09-23T05:41:27.334Z,51.29
2022-09-23T05:43:55.349Z,50.51
2022-09-23T05:46:28.204Z,50.91
2022-09-23T05:49:01.811Z,50.97
2022-09-23T05:51:31.988Z,50.55
2022-09-23T05:54:00.568Z,51.12
2022-09-23T05:56:28.687Z,51.76
2022-09-23T05:58:58.448Z,51.70
2022-09-23T06:01:34.788Z,50.66
2022-09-23T06:04:04.912Z,50.31
2022-09-23T06:06:37.480Z,50.06
2022-09-23T06:09:06.531Z,50.69
2022-09-23T06:11:35.590Z,51.37
2022-09-23T06:14:04.032Z,52.64
2022-09-23T06:16:34.556Z,52.69
2022-09-23T06:19:06.307Z,51.79
2022-09-23T06:21:36.275Z,52.08
2022-09-23T06:24:04.132Z,52.10
2022-09-23T06:26:35.053Z,50.58
2022-09-23T06:29:13.525Z,48.44
2022-09-23T06:31:42.144Z,48.75
2022-09-23T06:34:13.534Z,48.87
2022-09-23T06:36:46.175Z,49.45
2022-09-23T06:39:15.102Z,50.24
2022-09-23T06:41:43.881Z,52.36
2022-09-23T06:44:15.623Z,51.54
2022-09-23T06:46:43.812Z,51.00
2022-09-23T06:49:12.182Z,49.85
2022-09-23T06:51:40.217Z,50.22
2022-09-23T06:54:08.226Z,49.89
2022-09-23T06:56:39.041Z,50.03
2022-09-23T06:59:09.936Z,51.10
2022-09-23T07:01:38.201Z,50.39
2022-09-23T07:04:07.630Z,51.05
2022-09-23T07:06:35.641Z,50.99
2022-09-23T07:09:04.424Z,50.40
2022-09-23T07:11:31.865Z,51.31
2022-09-23T07:13:59.334Z,50.60
2022-09-23T07:16:27.273Z,51.50
2022-09-23T07:18:55.121Z,50.16
2022-09-23T07:21:22.553Z,50.30
2022-09-23T07:23:51.854Z,48.86
2022-09-23T07:26:20.508Z,50.05
2022-09-23T07:28:47.977Z,49.87
2022-09-23T07:31:31.623Z,49.64
2022-09-23T07:34:02.470Z,49.51
2022-09-23T07:36:32.811Z,49.27
2022-09-23T07:39:03.394Z,49.10
2022-09-23T07:41:32.909Z,50.85
2022-09-23T07:44:01.188Z,50.32
2022-09-23T07:46:34.234Z,49.42
2022-09-23T07:49:03.267Z,50.94
2022-09-23T07:51:36.662Z,50.51
2022-09-23T07:54:07.999Z,50.24
2022-09-23T07:56:36.413Z,51.31
2022-09-23T07:59:05.564Z,51.54
2022-09-23T08:01:38.340Z,51.48
2022-09-23T08:04:12.221Z,51.21
2022-09-23T08:06:47.479Z,50.74
2022-09-23T08:09:17.115Z,51.27
2022-09-23T08:11:44.616Z,48.33
2022-09-23T08:14:13.867Z,49.09
2022-09-23T08:16:42.149Z,49.12
2022-09-23T08:19:09.702Z,50.00
2022-09-23T08:21:39.268Z,48.12
2022-09-23T08:24:15.426Z,50.30
2022-09-23T08:26:44.013Z,48.74
2022-09-23T08:29:13.720Z,48.43
2022-09-23T08:31:41.189Z,48.07
2022-09-23T08:34:08.999Z,48.55
2022-09-23T08:36:36.737Z,49.54
2022-09-23T08:39:05.095Z,50.27
2022-09-23T08:41:58.549Z,49.47
2022-09-23T08:44:48.195Z,49.13
2022-09-23T08:47:24.795Z,49.68
2022-09-23T08:50:08.607Z,48.50
2022-09-23T08:52:42.972Z,48.04
2022-09-23T08:55:12.665Z,47.45
2022-09-23T08:58:24.589Z,47.72
2022-09-23T09:00:56.473Z,48.34
2022-09-23T09:04:20.593Z,48.75
2022-09-23T09:07:36.751Z,47.90
2022-09-23T09:10:17.260Z,49.44
2022-09-23T09:12:47.581Z,47.99
2022-09-23T09:15:19.398Z,47.83
2022-09-23T09:18:10.153Z,47.77
2022-09-23T09:20:40.751Z,48.47
2022-09-23T09:23:35.090Z,47.06
2022-09-23T09:26:04.050Z,46.88
2022-09-23T09:28:48.478Z,48.73
2022-09-23T09:31:33.781Z,48.43
2022-09-23T09:34:12.046Z,47.46
2022-09-23T09:36:48.611Z,47.58
2022-09-23T09:39:16.388Z,47.06
2022-09-23T09:41:47.845Z,46.68
2022-09-23T09:44:31.715Z,47.44
2022-09-23T09:47:20.940Z,47.20
2022-09-23T09:49:52.076Z,47.47
2022-09-23T09:52:28.783Z,46.15
2022-09-23T09:55:17.188Z,44.78
2022-09-23T09:57:48.994Z,44.95
2022-09-23T10:00:39.082Z,44.49
2022-09-23T10:03:13.293Z,45.39
2022-09-23T10:05:43.736Z,45.80
2022-09-23T10:08:23.421Z,44.54
2022-09-23T10:10:55.178Z,43.38
2022-09-23T10:13:27.412Z,44.71
2022-09-23T10:15:56.722Z,43.50
2022-09-23T10:18:39.684Z,44.02
2022-09-23T10:21:15.546Z,43.72
2022-09-23T10:24:03.575Z,42.33
2022-09-23T10:26:34.691Z,40.26
2022-09-23T10:29:04.995Z,40.33
2022-09-23T10:31:34.658Z,39.66
2022-09-23T10:34:19.182Z,39.50
2022-09-23T10:36:58.410Z,39.24
2022-09-23T10:39:44.700Z,39.55
2022-09-23T10:42:40.628Z,39.73
2022-09-23T10:45:39.765Z,38.71
2022-09-23T10:48:31.369Z,38.45
2022-09-23T10:50:59.830Z,38.99
2022-09-23T10:53:42.093Z,38.72
2022-09-23T10:56:22.964Z,38.33
2022-09-23T10:59:12.518Z,37.99
2022-09-23T11:02:18.040Z,37.05
2022-09-23T11:04:48.357Z,38.67
2022-09-23T11:07:37.292Z,38.21
2022-09-23T11:10:46.011Z,38.13
2022-09-23T11:13:24.712Z,39.47
2022-09-23T11:16:31.706Z,39.97
2022-09-23T11:19:52.072Z,40.65
2022-09-23T11:22:38.039Z,40.85
2022-09-23T11:25:23.841Z,40.14
2022-09-23T11:28:21.652Z,40.22
2022-09-23T11:31:12.607Z,40.44
2022-09-23T11:33:58.566Z,40.55
2022-09-23T11:36:30.426Z,40.86
2022-09-23T11:39:00.571Z,41.47
2022-09-23T11:41:30.706Z,41.79
2022-09-23T11:44:19.958Z,41.78
2022-09-23T11:46:56.159Z,41.80
2022-09-23T11:49:39.300Z,41.30
2022-09-23T11:52:36.231Z,42.67
2022-09-23T11:55:22.954Z,42.04
2022-09-23T11:58:23.891Z,42.76
2022-09-23T12:01:07.393Z,42.83
2022-09-23T12:03:44.023Z,42.36
2022-09-23T12:06:19.968Z,42.26
2022-09-23T12:08:54.739Z,41.33
2022-09-23T12:12:25.026Z,42.62
2022-09-23T12:15:18.881Z,42.11
2022-09-23T12:17:58.336Z,41.12
2022-09-23T12:20:37.905Z,40.65
2022-09-23T12:23:27.490Z,40.72
2022-09-23T12:25:57.940Z,40.90
2022-09-23T12:28:33.823Z,39.24
2022-09-23T12:31:02.721Z,38.88
2022-09-23T12:33:32.466Z,38.28
2022-09-23T12:36:07.911Z,37.60
2022-09-23T12:38:51.314Z,37.08
2022-09-23T12:41:38.262Z,35.61
2022-09-23T12:44:15.085Z,38.61
2022-09-23T12:46:44.732Z,35.94
2022-09-23T12:49:36.639Z,37.45
2022-09-23T12:52:16.671Z,38.66
2022-09-23T12:54:49.341Z,37.40
2022-09-23T12:57:34.846Z,37.34
2022-09-23T13:00:12.898Z,36.59
2022-09-23T13:02:41.855Z,35.72
2022-09-23T13:05:43.300Z,34.73
2022-09-23T13:08:19.762Z,35.20
2022-09-23T13:10:49.996Z,33.69
2022-09-23T13:13:46.609Z,34.26
2022-09-23T13:16:31.254Z,33.55
2022-09-23T13:18:58.841Z,34.42
2022-09-23T13:21:44.966Z,34.35
2022-09-23T13:24:31.168Z,33.71
2022-09-23T13:27:01.698Z,32.45
2022-09-23T13:29:47.891Z,29.57
2022-09-23T13:32:17.871Z,30.96
2022-09-23T13:34:58.159Z,30.89
2022-09-23T13:37:51.580Z,33.50
2022-09-23T13:40:27.496Z,34.77
2022-09-23T13:43:02.220Z,32.94
2022-09-23T13:45:34.227Z,33.24
2022-09-23T13:48:12.160Z,34.04
2022-09-23T13:50:44.242Z,33.78
2022-09-23T13:53:14.507Z,33.18
2022-09-23T13:55:42.094Z,32.86
2022-09-23T13:58:24.003Z,33.56
2022-09-23T14:00:51.948Z,32.68
2022-09-23T14:03:36.760Z,33.23
2022-09-23T14:06:11.869Z,33.61
2022-09-23T14:08:42.999Z,32.32
2022-09-23T14:11:15.902Z,32.31
2022-09-23T14:13:45.032Z,32.88
2022-09-23T14:16:15.046Z,34.47
2022-09-23T14:18:47.399Z,34.30
2022-09-23T14:21:36.731Z,35.19
2022-09-23T14:24:10.288Z,34.96
2022-09-23T14:26:39.869Z,35.02
2022-09-23T14:29:17.238Z,34.95
2022-09-23T14:31:56.929Z,35.12
2022-09-23T14:34:44.289Z,34.85
2022-09-23T14:37:39.924Z,35.11
2022-09-23T14:40:19.383Z,34.88
2022-09-23T14:43:05.670Z,35.13
2022-09-23T14:45:39.333Z,35.77
2022-09-23T14:48:16.315Z,36.06
2022-09-23T14:50:50.521Z,36.31
2022-09-23T14:53:24.144Z,35.32
2022-09-23T14:56:10.061Z,35.21
2022-09-23T14:58:53.510Z,34.84
2022-09-23T15:01:33.283Z,35.86
2022-09-23T15:04:21.292Z,35.06
2022-09-23T15:06:58.572Z,35.22
2022-09-23T15:09:35.353Z,35.72
2022-09-23T15:12:07.464Z,35.67
2022-09-23T15:14:39.393Z,35.55
2022-09-23T15:17:23.526Z,36.22
2022-09-23T15:19:56.589Z,35.63
2022-09-23T15:22:24.921Z,34.47
2022-09-23T15:24:54.432Z,34.19
2022-09-23T15:27:29.123Z,33.80
2022-09-23T15:30:18.083Z,34.10
2022-09-23T15:32:46.444Z,34.89
2022-09-23T15:35:19.307Z,34.85
2022-09-23T15:37:48.727Z,35.30
2022-09-23T15:40:19.094Z,35.71
2022-09-23T15:42:52.415Z,36.44
2022-09-23T15:45:22.369Z,36.60
2022-09-23T15:47:50.719Z,37.22
2022-09-23T15:50:18.637Z,38.21
2022-09-23T15:52:46.462Z,38.06
2022-09-23T15:55:21.300Z,38.49
2022-09-23T15:57:50.029Z,38.94
2022-09-23T16:00:17.771Z,38.93
2022-09-23T16:02:48.034Z,39.58
2022-09-23T16:05:22.238Z,39.26
2022-09-23T16:07:52.292Z,38.94
2022-09-23T16:10:21.377Z,39.47
2022-09-23T16:12:49.382Z,39.84
2022-09-23T16:15:19.257Z,39.89
2022-09-23T16:17:46.884Z,40.64
2022-09-23T16:20:18.272Z,41.37
2022-09-23T16:22:57.622Z,41.03
2022-09-23T16:25:28.316Z,41.23
2022-09-23T16:27:56.604Z,41.67
2022-09-23T16:30:26.325Z,42.31
2022-09-23T16:32:54.060Z,42.71
2022-09-23T16:35:25.014Z,42.86
2022-09-23T16:37:52.873Z,42.87
2022-09-23T16:40:22.570Z,43.59
2022-09-23T16:42:52.407Z,43.43
2022-09-23T16:45:23.051Z,43.52
2022-09-23T16:47:51.993Z,43.99
2022-09-23T16:50:25.448Z,43.81
2022-09-23T16:52:56.397Z,43.92
2022-09-23T16:55:26.109Z,44.04
2022-09-23T16:57:54.676Z,44.25
2022-09-23T17:00:41.145Z,44.14
2022-09-23T17:03:30.551Z,44.01
2022-09-23T17:05:58.232Z,44.06
2022-09-23T17:08:26.422Z,44.25
2022-09-23T17:10:57.129Z,44.60
2022-09-23T17:13:26.144Z,44.98
2022-09-23T17:15:54.269Z,45.31
2022-09-23T17:18:23.053Z,46.16
2022-09-23T17:21:04.830Z,45.85
2022-09-23T17:23:35.194Z,45.85
2022-09-23T17:26:03.235Z,47.04
2022-09-23T17:28:30.661Z,46.82
2022-09-23T17:31:00.222Z,46.99
2022-09-23T17:33:29.457Z,46.82
2022-09-23T17:35:57.857Z,47.07
2022-09-23T17:38:29.131Z,46.77
2022-09-23T17:40:59.126Z,47.16
2022-09-23T17:43:27.169Z,47.33
2022-09-23T17:45:56.585Z,47.28
2022-09-23T17:48:25.477Z,47.76
2022-09-23T17:50:56.682Z,47.54
2022-09-23T17:53:24.668Z,47.68
2022-09-23T17:56:04.281Z,47.99
2022-09-23T17:58:37.845Z,48.19
2022-09-23T18:01:19.077Z,48.54
2022-09-23T18:03:47.478Z,48.77
2022-09-23T18:06:17.563Z,48.96
2022-09-23T18:08:46.543Z,49.18
2022-09-23T18:11:22.643Z,49.90
2022-09-23T18:13:53.685Z,49.27
2022-09-23T18:16:23.797Z,49.97
2022-09-23T18:18:53.110Z,49.62
2022-09-23T18:21:22.111Z,49.10
2022-09-23T18:23:50.539Z,49.73
2022-09-23T18:26:20.418Z,49.87
2022-09-23T18:28:48.642Z,49.70
2022-09-23T18:31:16.376Z,49.29
2022-09-23T18:33:43.862Z,48.88
2022-09-23T18:36:11.689Z,48.74
2022-09-23T18:38:39.910Z,48.89
2022-09-23T18:41:08.128Z,49.49
2022-09-23T18:43:40.790Z,49.12
2022-09-23T18:46:14.997Z,48.81
2022-09-23T18:49:02.659Z,49.06
2022-09-23T18:51:30.675Z,48.44
2022-09-23T18:54:00.172Z,48.54
2022-09-23T18:56:40.976Z,48.45
2022-09-23T18:59:14.501Z,48.89
2022-09-23T19:01:43.054Z,49.42
2022-09-23T19:04:11.300Z,49.10
2022-09-23T19:06:39.039Z,48.93
2022-09-23T19:09:07.326Z,48.92
2022-09-23T19:11:38.104Z,49.21
2022-09-23T19:14:09.928Z,48.30
2022-09-23T19:16:40.238Z,48.45
2022-09-23T19:19:09.462Z,48.18
2022-09-23T19:21:37.999Z,47.96
2022-09-23T19:24:08.189Z,48.04
2022-09-23T19:26:38.736Z,48.25
2022-09-23T19:29:08.412Z,48.34
2022-09-23T19:31:40.514Z,48.40
2022-09-23T19:34:13.398Z,49.06
2022-09-23T19:36:43.233Z,48.35
2022-09-23T19:39:19.852Z,48.70
2022-09-23T19:41:48.492Z,48.82
2022-09-23T19:44:16.709Z,48.74
2022-09-23T19:46:45.691Z,48.59
2022-09-23T19:49:14.402Z,48.34
2022-09-23T19:51:44.175Z,48.02
2022-09-23T19:54:12.020Z,47.93
2022-09-23T19:56:39.882Z,47.79
2022-09-23T19:59:09.412Z,47.31
2022-09-23T20:01:37.252Z,47.93
2022-09-23T20:04:05.661Z,47.88
2022-09-23T20:06:34.213Z,48.03
2022-09-23T20:09:02.192Z,47.68
2022-09-23T20:11:31.526Z,48.42
2022-09-23T20:14:02.116Z,48.11
2022-09-23T20:16:35.074Z,48.21
2022-09-23T20:19:04.226Z,48.16
2022-09-23T20:21:33.514Z,47.84
2022-09-23T20:24:02.048Z,47.67
2022-09-23T20:26:47.897Z,47.65
2022-09-23T20:29:15.716Z,48.19
2022-09-23T20:31:43.611Z,48.17
2022-09-23T20:34:12.258Z,48.30
2022-09-23T20:36:41.709Z,47.77
2022-09-23T20:39:10.365Z,47.60
2022-09-23T20:41:39.251Z,47.57
2022-09-23T20:44:12.433Z,47.63
2022-09-23T20:46:45.272Z,47.75
2022-09-23T20:49:16.878Z,47.51
2022-09-23T20:51:44.549Z,48.07
2022-09-23T20:54:12.418Z,48.26
2022-09-23T20:56:40.404Z,48.28
2022-09-23T20:59:09.421Z,47.83
2022-09-23T21:01:37.208Z,47.85
2022-09-23T21:04:05.952Z,47.70
2022-09-23T21:06:37.592Z,47.22
2022-09-23T21:09:06.473Z,46.89
2022-09-23T21:11:34.310Z,47.29
2022-09-23T21:14:02.177Z,47.48
2022-09-23T21:16:30.503Z,47.67
2022-09-23T21:18:58.628Z,47.99
2022-09-23T21:21:26.481Z,48.32
2022-09-23T21:23:54.472Z,47.66
2022-09-23T21:26:23.697Z,48.09
2022-09-23T21:28:53.238Z,47.84
2022-09-23T21:31:26.721Z,47.62
2022-09-23T21:33:59.633Z,47.63
2022-09-23T21:36:32.799Z,47.65
2022-09-23T21:39:04.307Z,47.48
2022-09-23T21:41:32.818Z,47.42
2022-09-23T21:44:00.765Z,47.74
2022-09-23T21:46:29.021Z,48.18
2022-09-23T21:48:57.606Z,47.57
2022-09-23T21:51:27.592Z,48.67
2022-09-23T21:53:56.922Z,48.43
2022-09-23T21:56:27.099Z,47.31
2022-09-23T21:58:55.823Z,47.23
2022-09-23T22:01:30.155Z,47.59
2022-09-23T22:04:05.178Z,47.55
2022-09-23T22:06:33.280Z,46.85
2022-09-23T22:09:03.342Z,46.83
2022-09-23T22:11:51.415Z,46.68
2022-09-23T22:14:20.758Z,46.72
2022-09-23T22:16:48.302Z,46.70
2022-09-23T22:19:16.031Z,46.74
2022-09-23T22:21:45.294Z,47.51
2022-09-23T22:24:13.388Z,47.53
2022-09-23T22:26:42.293Z,48.23
2022-09-23T22:29:31.410Z,47.99
2022-09-23T22:32:19.450Z,48.73
2022-09-23T22:34:50.407Z,48.63
2022-09-23T22:37:27.137Z,48.35
2022-09-23T22:39:55.165Z,48.45
2022-09-23T22:42:22.904Z,48.93
2022-09-23T22:44:51.019Z,49.03
2022-09-23T22:47:19.859Z,49.03
2022-09-23T22:49:48.225Z,48.55
2022-09-23T22:52:21.154Z,48.92
2022-09-23T22:54:49.007Z,48.78
2022-09-23T22:57:16.834Z,48.27
2022-09-23T22:59:48.000Z,48.60
2022-09-23T23:02:18.104Z,48.13
2022-09-23T23:04:49.033Z,48.16
2022-09-23T23:07:21.627Z,48.28
2022-09-23T23:09:50.185Z,48.07
2022-09-23T23:12:20.173Z,48.61
2022-09-23T23:14:48.619Z,48.01
2022-09-23T23:17:16.608Z,47.84
2022-09-23T23:19:44.531Z,47.71
2022-09-23T23:22:12.039Z,47.79
2022-09-23T23:24:39.846Z,47.97
2022-09-23T23:27:07.584Z,47.77
2022-09-23T23:29:35.031Z,47.89
2022-09-23T23:32:02.583Z,47.57
2022-09-23T23:34:30.292Z,47.83
2022-09-23T23:36:57.841Z,48.07
2022-09-23T23:39:25.646Z,47.71
2022-09-23T23:41:57.307Z,48.47
2022-09-23T23:44:25.947Z,47.69
2022-09-23T23:46:54.589Z,48.01
2022-09-23T23:49:22.342Z,47.91
2022-09-23T23:51:49.813Z,48.36
2022-09-23T23:54:17.693Z,48.59
2022-09-23T23:56:45.138Z,49.02
2022-09-23T23:59:12.749Z,48.68
